sensor_id;sensor_type;location;lat;lon;timestamp;temperature;humidity
39881;DHT22;25554;44.954;10.068;2023-08-07T00:00:59;18.60;99.90
39881;DHT22;25554;44.954;10.068;2023-08-07T00:03:25;18.50;99.90
39881;DHT22;25554;44.954;10.068;2023-08-07T00:05:51;18.50;99.90
39881;DHT22;25554;44.954;10.068;2023-08-07T00:08:21;18.40;99.90
39881;DHT22;25554;44.954;10.068;2023-08-07T00:10:47;18.30;99.90
39881;DHT22;25554;44.954;10.068;2023-08-07T00:13:14;18.30;99.90
39881;DHT22;25554;44.954;10.068;2023-08-07T00:15:40;17.90;99.90
39881;DHT22;25554;44.954;10.068;2023-08-07T00:18:06;18.30;99.90
39881;DHT22;25554;44.954;10.068;2023-08-07T00:20:32;18.30;99.90
39881;DHT22;25554;44.954;10.068;2023-08-07T00:22:58;18.30;99.90
39881;DHT22;25554;44.954;10.068;2023-08-07T00:25:24;18.20;99.90
39881;DHT22;25554;44.954;10.068;2023-08-07T00:27:50;18.20;99.90
39881;DHT22;25554;44.954;10.068;2023-08-07T00:30:17;18.20;99.90
39881;DHT22;25554;44.954;10.068;2023-08-07T00:32:43;18.20;99.90
39881;DHT22;25554;44.954;10.068;2023-08-07T00:35:10;18.10;99.90
39881;DHT22;25554;44.954;10.068;2023-08-07T00:37:36;18.10;99.90
39881;DHT22;25554;44.954;10.068;2023-08-07T00:40:02;17.80;99.90
39881;DHT22;25554;44.954;10.068;2023-08-07T00:42:28;18.00;99.90
39881;DHT22;25554;44.954;10.068;2023-08-07T00:44:54;18.00;99.90
39881;DHT22;25554;44.954;10.068;2023-08-07T00:47:21;17.90;99.90
39881;DHT22;25554;44.954;10.068;2023-08-07T00:49:47;17.90;99.90
39881;DHT22;25554;44.954;10.068;2023-08-07T00:52:13;17.70;99.90
39881;DHT22;25554;44.954;10.068;2023-08-07T00:54:39;17.70;99.90
39881;DHT22;25554;44.954;10.068;2023-08-07T00:57:14;17.70;99.90
39881;DHT22;25554;44.954;10.068;2023-08-07T00:59:41;17.60;99.90
39881;DHT22;25554;44.954;10.068;2023-08-07T01:02:09;17.60;99.90
39881;DHT22;25554;44.954;10.068;2023-08-07T01:04:35;17.50;99.90
39881;DHT22;25554;44.954;10.068;2023-08-07T01:07:02;17.50;99.90
39881;DHT22;25554;44.954;10.068;2023-08-07T01:09:28;17.40;99.90
39881;DHT22;25554;44.954;10.068;2023-08-07T01:17:09;17.20;99.90
39881;DHT22;25554;44.954;10.068;2023-08-07T01:19:36;17.00;99.90
39881;DHT22;25554;44.954;10.068;2023-08-07T01:24:32;16.80;99.90
39881;DHT22;25554;44.954;10.068;2023-08-07T01:27:00;16.60;99.90
39881;DHT22;25554;44.954;10.068;2023-08-07T01:29:33;16.60;99.90
39881;DHT22;25554;44.954;10.068;2023-08-07T01:32:01;16.50;99.90
39881;DHT22;25554;44.954;10.068;2023-08-07T01:34:29;16.50;99.90
39881;DHT22;25554;44.954;10.068;2023-08-07T01:36:56;16.40;99.90
39881;DHT22;25554;44.954;10.068;2023-08-07T01:39:23;16.40;99.90
39881;DHT22;25554;44.954;10.068;2023-08-07T01:41:50;16.40;99.90
39881;DHT22;25554;44.954;10.068;2023-08-07T01:44:16;16.50;99.90
39881;DHT22;25554;44.954;10.068;2023-08-07T01:46:43;16.40;99.90
39881;DHT22;25554;44.954;10.068;2023-08-07T01:49:09;16.50;99.90
39881;DHT22;25554;44.954;10.068;2023-08-07T01:51:35;16.50;99.90
39881;DHT22;25554;44.954;10.068;2023-08-07T01:54:01;13.40;99.90
39881;DHT22;25554;44.954;10.068;2023-08-07T01:56:27;15.50;99.90
39881;DHT22;25554;44.954;10.068;2023-08-07T01:58:53;16.60;99.90
39881;DHT22;25554;44.954;10.068;2023-08-07T02:01:20;18.30;99.90
39881;DHT22;25554;44.954;10.068;2023-08-07T02:03:51;18.80;99.90
39881;DHT22;25554;44.954;10.068;2023-08-07T02:06:18;16.60;99.90
39881;DHT22;25554;44.954;10.068;2023-08-07T02:08:44;17.20;99.90
39881;DHT22;25554;44.954;10.068;2023-08-07T02:11:11;17.30;99.90
39881;DHT22;25554;44.954;10.068;2023-08-07T02:13:37;16.60;99.90
39881;DHT22;25554;44.954;10.068;2023-08-07T02:16:04;16.40;99.90
39881;DHT22;25554;44.954;10.068;2023-08-07T02:18:30;16.40;99.90
39881;DHT22;25554;44.954;10.068;2023-08-07T02:20:59;19.00;99.90
39881;DHT22;25554;44.954;10.068;2023-08-07T02:23:25;16.20;99.90
39881;DHT22;25554;44.954;10.068;2023-08-07T02:25:51;16.20;99.90
39881;DHT22;25554;44.954;10.068;2023-08-07T02:28:19;16.20;99.90
39881;DHT22;25554;44.954;10.068;2023-08-07T02:30:48;16.20;99.90
39881;DHT22;25554;44.954;10.068;2023-08-07T02:33:16;16.20;99.90
39881;DHT22;25554;44.954;10.068;2023-08-07T02:35:44;16.30;99.90
39881;DHT22;25554;44.954;10.068;2023-08-07T02:38:10;16.30;99.90
39881;DHT22;25554;44.954;10.068;2023-08-07T02:40:37;16.30;99.90
39881;DHT22;25554;44.954;10.068;2023-08-07T02:43:03;16.40;99.90
39881;DHT22;25554;44.954;10.068;2023-08-07T02:45:29;16.40;99.90
39881;DHT22;25554;44.954;10.068;2023-08-07T02:47:55;16.50;99.90
39881;DHT22;25554;44.954;10.068;2023-08-07T02:50:21;16.50;99.90
39881;DHT22;25554;44.954;10.068;2023-08-07T02:52:47;16.60;99.90
39881;DHT22;25554;44.954;10.068;2023-08-07T02:55:13;16.50;99.90
39881;DHT22;25554;44.954;10.068;2023-08-07T02:57:39;16.60;99.90
39881;DHT22;25554;44.954;10.068;2023-08-07T03:00:06;16.60;99.90
39881;DHT22;25554;44.954;10.068;2023-08-07T03:02:32;16.60;99.90
39881;DHT22;25554;44.954;10.068;2023-08-07T03:04:58;16.60;99.90
39881;DHT22;25554;44.954;10.068;2023-08-07T03:07:24;16.70;99.90
39881;DHT22;25554;44.954;10.068;2023-08-07T03:09:50;16.70;99.90
39881;DHT22;25554;44.954;10.068;2023-08-07T03:12:17;16.70;99.90
39881;DHT22;25554;44.954;10.068;2023-08-07T03:14:44;16.70;99.90
39881;DHT22;25554;44.954;10.068;2023-08-07T03:17:10;16.60;99.90
39881;DHT22;25554;44.954;10.068;2023-08-07T03:19:36;16.40;99.90
39881;DHT22;25554;44.954;10.068;2023-08-07T03:22:02;16.50;99.90
39881;DHT22;25554;44.954;10.068;2023-08-07T03:24:29;16.40;99.90
39881;DHT22;25554;44.954;10.068;2023-08-07T03:26:55;16.40;99.90
39881;DHT22;25554;44.954;10.068;2023-08-07T03:29:21;16.50;99.90
39881;DHT22;25554;44.954;10.068;2023-08-07T03:31:47;16.50;99.90
39881;DHT22;25554;44.954;10.068;2023-08-07T03:34:14;16.40;99.90
39881;DHT22;25554;44.954;10.068;2023-08-07T03:36:40;16.40;99.90
39881;DHT22;25554;44.954;10.068;2023-08-07T03:39:06;16.40;99.90
39881;DHT22;25554;44.954;10.068;2023-08-07T03:41:33;16.20;99.90
39881;DHT22;25554;44.954;10.068;2023-08-07T03:44:00;16.30;99.90
39881;DHT22;25554;44.954;10.068;2023-08-07T03:46:26;16.30;99.90
39881;DHT22;25554;44.954;10.068;2023-08-07T03:48:52;16.30;99.90
39881;DHT22;25554;44.954;10.068;2023-08-07T03:51:19;16.20;99.90
39881;DHT22;25554;44.954;10.068;2023-08-07T03:53:49;16.20;99.90
39881;DHT22;25554;44.954;10.068;2023-08-07T03:56:15;16.10;99.90
39881;DHT22;25554;44.954;10.068;2023-08-07T03:58:41;16.10;99.90
39881;DHT22;25554;44.954;10.068;2023-08-07T04:01:08;16.00;99.90
39881;DHT22;25554;44.954;10.068;2023-08-07T04:03:35;16.00;99.90
39881;DHT22;25554;44.954;10.068;2023-08-07T04:06:01;15.90;99.90
39881;DHT22;25554;44.954;10.068;2023-08-07T04:08:27;15.90;99.90
39881;DHT22;25554;44.954;10.068;2023-08-07T04:11:12;15.90;99.90
39881;DHT22;25554;44.954;10.068;2023-08-07T04:13:38;15.80;99.90
39881;DHT22;25554;44.954;10.068;2023-08-07T04:16:04;15.70;99.90
39881;DHT22;25554;44.954;10.068;2023-08-07T04:18:31;15.70;99.90
39881;DHT22;25554;44.954;10.068;2023-08-07T04:20:58;15.70;99.90
39881;DHT22;25554;44.954;10.068;2023-08-07T04:23:24;15.60;99.90
39881;DHT22;25554;44.954;10.068;2023-08-07T04:25:51;15.70;99.90
39881;DHT22;25554;44.954;10.068;2023-08-07T04:28:17;17.70;99.90
39881;DHT22;25554;44.954;10.068;2023-08-07T04:30:44;15.80;99.90
39881;DHT22;25554;44.954;10.068;2023-08-07T04:33:11;16.20;99.90
39881;DHT22;25554;44.954;10.068;2023-08-07T04:35:38;15.90;99.90
39881;DHT22;25554;44.954;10.068;2023-08-07T04:38:04;14.30;99.90
39881;DHT22;25554;44.954;10.068;2023-08-07T04:40:30;16.00;99.90
39881;DHT22;25554;44.954;10.068;2023-08-07T04:42:56;16.00;99.90
39881;DHT22;25554;44.954;10.068;2023-08-07T04:45:23;16.10;99.90
39881;DHT22;25554;44.954;10.068;2023-08-07T04:47:49;16.10;99.90
39881;DHT22;25554;44.954;10.068;2023-08-07T04:50:15;16.10;99.90
39881;DHT22;25554;44.954;10.068;2023-08-07T04:52:41;16.20;99.90
39881;DHT22;25554;44.954;10.068;2023-08-07T04:55:07;16.20;99.90
39881;DHT22;25554;44.954;10.068;2023-08-07T04:57:34;16.00;99.90
39881;DHT22;25554;44.954;10.068;2023-08-07T05:00:00;16.30;99.90
39881;DHT22;25554;44.954;10.068;2023-08-07T05:02:26;16.40;99.90
39881;DHT22;25554;44.954;10.068;2023-08-07T05:04:52;16.50;99.90
39881;DHT22;25554;44.954;10.068;2023-08-07T05:07:18;16.50;99.90
39881;DHT22;25554;44.954;10.068;2023-08-07T05:09:44;16.60;99.90
39881;DHT22;25554;44.954;10.068;2023-08-07T05:12:10;16.70;99.90
39881;DHT22;25554;44.954;10.068;2023-08-07T05:14:36;16.80;99.90
39881;DHT22;25554;44.954;10.068;2023-08-07T05:17:02;16.90;99.90
39881;DHT22;25554;44.954;10.068;2023-08-07T05:19:28;16.90;99.90
39881;DHT22;25554;44.954;10.068;2023-08-07T05:21:54;17.00;99.90
39881;DHT22;25554;44.954;10.068;2023-08-07T05:24:21;17.00;99.90
39881;DHT22;25554;44.954;10.068;2023-08-07T05:26:47;17.10;99.90
39881;DHT22;25554;44.954;10.068;2023-08-07T05:29:13;17.10;99.90
39881;DHT22;25554;44.954;10.068;2023-08-07T05:31:39;17.10;99.90
39881;DHT22;25554;44.954;10.068;2023-08-07T05:34:05;17.10;99.90
39881;DHT22;25554;44.954;10.068;2023-08-07T05:36:32;17.20;99.90
39881;DHT22;25554;44.954;10.068;2023-08-07T05:38:59;17.30;99.90
39881;DHT22;25554;44.954;10.068;2023-08-07T05:41:25;17.40;99.90
39881;DHT22;25554;44.954;10.068;2023-08-07T05:43:51;17.50;99.90
39881;DHT22;25554;44.954;10.068;2023-08-07T05:46:17;17.60;99.90
39881;DHT22;25554;44.954;10.068;2023-08-07T05:48:43;17.70;99.90
39881;DHT22;25554;44.954;10.068;2023-08-07T05:51:09;17.80;99.90
39881;DHT22;25554;44.954;10.068;2023-08-07T05:53:35;17.90;99.90
39881;DHT22;25554;44.954;10.068;2023-08-07T05:56:02;18.00;99.90
39881;DHT22;25554;44.954;10.068;2023-08-07T05:58:29;18.10;99.90
39881;DHT22;25554;44.954;10.068;2023-08-07T06:00:55;18.30;99.90
39881;DHT22;25554;44.954;10.068;2023-08-07T06:03:21;18.50;99.90
39881;DHT22;25554;44.954;10.068;2023-08-07T06:05:47;18.70;99.90
39881;DHT22;25554;44.954;10.068;2023-08-07T06:08:13;18.80;99.90
39881;DHT22;25554;44.954;10.068;2023-08-07T06:10:39;19.00;99.90
39881;DHT22;25554;44.954;10.068;2023-08-07T06:13:05;19.00;99.90
39881;DHT22;25554;44.954;10.068;2023-08-07T06:15:32;19.10;99.90
39881;DHT22;25554;44.954;10.068;2023-08-07T06:17:58;19.20;99.90
39881;DHT22;25554;44.954;10.068;2023-08-07T06:20:24;19.30;99.90
39881;DHT22;25554;44.954;10.068;2023-08-07T06:22:50;19.40;99.90
39881;DHT22;25554;44.954;10.068;2023-08-07T06:25:16;19.50;99.90
39881;DHT22;25554;44.954;10.068;2023-08-07T06:27:42;19.70;99.90
39881;DHT22;25554;44.954;10.068;2023-08-07T06:30:08;19.90;99.90
39881;DHT22;25554;44.954;10.068;2023-08-07T06:32:34;20.00;99.80
39881;DHT22;25554;44.954;10.068;2023-08-07T06:35:03;20.20;98.40
39881;DHT22;25554;44.954;10.068;2023-08-07T06:37:29;20.30;97.40
39881;DHT22;25554;44.954;10.068;2023-08-07T06:39:55;20.40;97.30
39881;DHT22;25554;44.954;10.068;2023-08-07T06:42:21;20.60;96.80
39881;DHT22;25554;44.954;10.068;2023-08-07T06:44:47;20.30;96.20
39881;DHT22;25554;44.954;10.068;2023-08-07T06:47:13;20.80;96.20
39881;DHT22;25554;44.954;10.068;2023-08-07T06:49:39;21.00;96.20
39881;DHT22;25554;44.954;10.068;2023-08-07T06:52:05;21.20;95.10
39881;DHT22;25554;44.954;10.068;2023-08-07T06:54:31;21.30;94.70
39881;DHT22;25554;44.954;10.068;2023-08-07T06:56:57;21.70;94.30
39881;DHT22;25554;44.954;10.068;2023-08-07T06:59:23;22.30;93.20
39881;DHT22;25554;44.954;10.068;2023-08-07T07:01:51;22.90;93.30
39881;DHT22;25554;44.954;10.068;2023-08-07T07:04:17;23.30;92.50
39881;DHT22;25554;44.954;10.068;2023-08-07T07:06:43;23.50;92.10
39881;DHT22;25554;44.954;10.068;2023-08-07T07:09:10;23.50;91.00
39881;DHT22;25554;44.954;10.068;2023-08-07T07:11:36;23.40;91.00
39881;DHT22;25554;44.954;10.068;2023-08-07T07:14:02;23.50;91.20
39881;DHT22;25554;44.954;10.068;2023-08-07T07:16:28;23.40;90.80
39881;DHT22;25554;44.954;10.068;2023-08-07T07:18:54;23.50;90.60
39881;DHT22;25554;44.954;10.068;2023-08-07T07:21:22;23.40;89.10
39881;DHT22;25554;44.954;10.068;2023-08-07T07:23:48;23.50;90.10
39881;DHT22;25554;44.954;10.068;2023-08-07T07:26:14;23.40;90.30
39881;DHT22;25554;44.954;10.068;2023-08-07T07:28:40;23.50;90.10
39881;DHT22;25554;44.954;10.068;2023-08-07T07:31:06;23.40;89.40
39881;DHT22;25554;44.954;10.068;2023-08-07T07:33:34;23.50;89.10
39881;DHT22;25554;44.954;10.068;2023-08-07T07:36:02;23.50;90.10
39881;DHT22;25554;44.954;10.068;2023-08-07T07:38:28;23.50;89.40
39881;DHT22;25554;44.954;10.068;2023-08-07T07:40:54;23.50;88.40
39881;DHT22;25554;44.954;10.068;2023-08-07T07:43:22;23.40;87.10
39881;DHT22;25554;44.954;10.068;2023-08-07T07:45:49;23.60;88.00
39881;DHT22;25554;44.954;10.068;2023-08-07T07:48:15;23.70;87.60
39881;DHT22;25554;44.954;10.068;2023-08-07T07:50:41;23.80;88.50
39881;DHT22;25554;44.954;10.068;2023-08-07T07:53:07;23.70;86.00
39881;DHT22;25554;44.954;10.068;2023-08-07T07:55:33;23.80;86.70
39881;DHT22;25554;44.954;10.068;2023-08-07T07:58:00;23.60;85.40
39881;DHT22;25554;44.954;10.068;2023-08-07T08:00:26;23.80;85.60
39881;DHT22;25554;44.954;10.068;2023-08-07T08:02:53;23.90;85.50
39881;DHT22;25554;44.954;10.068;2023-08-07T08:05:19;24.00;86.10
39881;DHT22;25554;44.954;10.068;2023-08-07T08:07:46;24.20;86.40
39881;DHT22;25554;44.954;10.068;2023-08-07T08:10:12;24.20;86.20
39881;DHT22;25554;44.954;10.068;2023-08-07T08:12:39;24.30;85.60
39881;DHT22;25554;44.954;10.068;2023-08-07T08:15:05;24.20;83.90
39881;DHT22;25554;44.954;10.068;2023-08-07T08:17:31;22.60;84.20
39881;DHT22;25554;44.954;10.068;2023-08-07T08:19:57;24.00;84.20
39881;DHT22;25554;44.954;10.068;2023-08-07T08:22:24;24.00;85.40
39881;DHT22;25554;44.954;10.068;2023-08-07T08:24:50;23.90;83.60
39881;DHT22;25554;44.954;10.068;2023-08-07T08:27:16;24.00;85.80
39881;DHT22;25554;44.954;10.068;2023-08-07T08:29:43;24.00;83.90
39881;DHT22;25554;44.954;10.068;2023-08-07T08:32:10;24.10;86.20
39881;DHT22;25554;44.954;10.068;2023-08-07T08:34:36;24.10;85.80
39881;DHT22;25554;44.954;10.068;2023-08-07T08:37:03;24.10;85.50
39881;DHT22;25554;44.954;10.068;2023-08-07T08:39:31;24.20;86.00
39881;DHT22;25554;44.954;10.068;2023-08-07T08:41:57;24.20;87.60
39881;DHT22;25554;44.954;10.068;2023-08-07T08:44:25;24.30;87.60
39881;DHT22;25554;44.954;10.068;2023-08-07T08:46:52;24.30;87.00
39881;DHT22;25554;44.954;10.068;2023-08-07T08:49:21;24.30;87.00
39881;DHT22;25554;44.954;10.068;2023-08-07T08:51:48;24.20;87.60
39881;DHT22;25554;44.954;10.068;2023-08-07T08:54:15;24.30;86.40
39881;DHT22;25554;44.954;10.068;2023-08-07T08:56:42;24.30;86.90
39881;DHT22;25554;44.954;10.068;2023-08-07T08:59:08;24.20;87.20
39881;DHT22;25554;44.954;10.068;2023-08-07T09:01:35;24.30;87.60
39881;DHT22;25554;44.954;10.068;2023-08-07T09:04:01;24.50;88.10
39881;DHT22;25554;44.954;10.068;2023-08-07T09:06:31;24.70;88.50
39881;DHT22;25554;44.954;10.068;2023-08-07T09:08:57;24.70;86.80
39881;DHT22;25554;44.954;10.068;2023-08-07T09:11:24;24.80;87.00
39881;DHT22;25554;44.954;10.068;2023-08-07T09:13:50;24.90;87.00
39881;DHT22;25554;44.954;10.068;2023-08-07T09:16:17;25.00;87.00
39881;DHT22;25554;44.954;10.068;2023-08-07T09:21:33;25.20;85.70
39881;DHT22;25554;44.954;10.068;2023-08-07T09:23:59;25.20;84.80
39881;DHT22;25554;44.954;10.068;2023-08-07T09:29:46;25.50;84.50
39881;DHT22;25554;44.954;10.068;2023-08-07T09:35:49;25.70;84.10
39881;DHT22;25554;44.954;10.068;2023-08-07T09:38:31;26.30;82.90
39881;DHT22;25554;44.954;10.068;2023-08-07T09:40:58;29.60;85.50
39881;DHT22;25554;44.954;10.068;2023-08-07T09:43:28;26.50;82.60
39881;DHT22;25554;44.954;10.068;2023-08-07T09:46:44;26.80;83.20
39881;DHT22;25554;44.954;10.068;2023-08-07T09:49:10;26.50;80.00
39881;DHT22;25554;44.954;10.068;2023-08-07T09:51:46;26.70;77.60
39881;DHT22;25554;44.954;10.068;2023-08-07T09:54:13;26.70;78.40
39881;DHT22;25554;44.954;10.068;2023-08-07T09:56:39;26.90;77.30
39881;DHT22;25554;44.954;10.068;2023-08-07T09:59:06;26.80;77.30
39881;DHT22;25554;44.954;10.068;2023-08-07T10:01:32;26.80;75.10
39881;DHT22;25554;44.954;10.068;2023-08-07T10:03:59;26.90;74.80
39881;DHT22;25554;44.954;10.068;2023-08-07T10:06:25;26.90;76.10
39881;DHT22;25554;44.954;10.068;2023-08-07T10:08:51;27.00;74.60
39881;DHT22;25554;44.954;10.068;2023-08-07T10:11:18;27.40;73.80
39881;DHT22;25554;44.954;10.068;2023-08-07T10:13:45;27.20;71.80
39881;DHT22;25554;44.954;10.068;2023-08-07T10:16:11;27.20;71.30
39881;DHT22;25554;44.954;10.068;2023-08-07T10:18:38;27.20;72.10
39881;DHT22;25554;44.954;10.068;2023-08-07T10:21:05;27.20;73.40
39881;DHT22;25554;44.954;10.068;2023-08-07T10:23:33;27.20;72.10
39881;DHT22;25554;44.954;10.068;2023-08-07T10:26:00;27.40;74.00
39881;DHT22;25554;44.954;10.068;2023-08-07T10:28:27;27.40;74.20
39881;DHT22;25554;44.954;10.068;2023-08-07T10:30:54;27.40;73.90
39881;DHT22;25554;44.954;10.068;2023-08-07T10:33:21;27.50;73.70
39881;DHT22;25554;44.954;10.068;2023-08-07T10:35:47;27.50;73.00
39881;DHT22;25554;44.954;10.068;2023-08-07T10:38:14;27.40;73.10
39881;DHT22;25554;44.954;10.068;2023-08-07T10:43:26;27.80;70.80
39881;DHT22;25554;44.954;10.068;2023-08-07T10:45:53;27.90;70.90
39881;DHT22;25554;44.954;10.068;2023-08-07T10:48:20;27.80;69.70
39881;DHT22;25554;44.954;10.068;2023-08-07T10:51:05;25.20;66.70
39881;DHT22;25554;44.954;10.068;2023-08-07T10:56:01;28.00;67.20
39881;DHT22;25554;44.954;10.068;2023-08-07T10:58:34;28.00;69.60
39881;DHT22;25554;44.954;10.068;2023-08-07T11:01:20;28.00;67.60
39881;DHT22;25554;44.954;10.068;2023-08-07T11:03:54;27.90;68.00
39881;DHT22;25554;44.954;10.068;2023-08-07T11:06:30;27.90;67.70
39881;DHT22;25554;44.954;10.068;2023-08-07T11:08:59;27.90;67.00
39881;DHT22;25554;44.954;10.068;2023-08-07T11:11:29;28.00;69.70
39881;DHT22;25554;44.954;10.068;2023-08-07T11:13:55;28.00;67.90
39881;DHT22;25554;44.954;10.068;2023-08-07T11:16:21;28.00;66.30
39881;DHT22;25554;44.954;10.068;2023-08-07T11:18:48;28.10;66.50
39881;DHT22;25554;44.954;10.068;2023-08-07T11:21:14;28.10;67.20
39881;DHT22;25554;44.954;10.068;2023-08-07T11:23:41;28.10;67.00
39881;DHT22;25554;44.954;10.068;2023-08-07T11:26:07;28.00;66.60
39881;DHT22;25554;44.954;10.068;2023-08-07T11:28:34;28.10;67.50
39881;DHT22;25554;44.954;10.068;2023-08-07T11:31:00;28.20;68.40
39881;DHT22;25554;44.954;10.068;2023-08-07T11:33:27;28.30;69.00
39881;DHT22;25554;44.954;10.068;2023-08-07T11:35:54;28.30;66.20
39881;DHT22;25554;44.954;10.068;2023-08-07T11:38:30;28.40;66.30
39881;DHT22;25554;44.954;10.068;2023-08-07T11:40:57;28.30;66.20
39881;DHT22;25554;44.954;10.068;2023-08-07T11:43:23;26.80;65.90
39881;DHT22;25554;44.954;10.068;2023-08-07T11:45:49;28.20;67.30
39881;DHT22;25554;44.954;10.068;2023-08-07T11:48:16;28.30;65.10
39881;DHT22;25554;44.954;10.068;2023-08-07T11:50:42;28.30;64.30
39881;DHT22;25554;44.954;10.068;2023-08-07T11:53:08;28.40;67.00
39881;DHT22;25554;44.954;10.068;2023-08-07T11:55:34;28.40;67.00
39881;DHT22;25554;44.954;10.068;2023-08-07T11:58:03;28.30;64.70
39881;DHT22;25554;44.954;10.068;2023-08-07T12:00:29;28.20;65.10
39881;DHT22;25554;44.954;10.068;2023-08-07T12:02:57;28.40;64.30
39881;DHT22;25554;44.954;10.068;2023-08-07T12:05:23;28.50;65.00
39881;DHT22;25554;44.954;10.068;2023-08-07T12:07:49;27.80;63.50
39881;DHT22;25554;44.954;10.068;2023-08-07T12:10:15;29.60;66.30
39881;DHT22;25554;44.954;10.068;2023-08-07T12:12:42;28.60;66.00
39881;DHT22;25554;44.954;10.068;2023-08-07T12:15:08;28.70;63.30
39881;DHT22;25554;44.954;10.068;2023-08-07T12:17:35;28.70;64.00
39881;DHT22;25554;44.954;10.068;2023-08-07T12:20:03;28.70;65.90
39881;DHT22;25554;44.954;10.068;2023-08-07T12:22:29;28.90;64.30
39881;DHT22;25554;44.954;10.068;2023-08-07T12:24:55;29.70;65.70
39881;DHT22;25554;44.954;10.068;2023-08-07T12:27:21;29.10;63.80
39881;DHT22;25554;44.954;10.068;2023-08-07T12:29:47;29.20;64.10
39881;DHT22;25554;44.954;10.068;2023-08-07T12:32:13;29.20;63.70
39881;DHT22;25554;44.954;10.068;2023-08-07T12:34:39;29.30;63.40
39881;DHT22;25554;44.954;10.068;2023-08-07T12:37:06;29.20;64.90
39881;DHT22;25554;44.954;10.068;2023-08-07T12:39:32;29.00;64.00
39881;DHT22;25554;44.954;10.068;2023-08-07T12:41:58;28.90;63.00
39881;DHT22;25554;44.954;10.068;2023-08-07T12:44:24;28.90;62.90
39881;DHT22;25554;44.954;10.068;2023-08-07T12:46:50;29.00;63.10
39881;DHT22;25554;44.954;10.068;2023-08-07T12:49:17;29.00;61.60
39881;DHT22;25554;44.954;10.068;2023-08-07T12:51:44;28.30;62.30
39881;DHT22;25554;44.954;10.068;2023-08-07T12:54:10;29.10;62.60
39881;DHT22;25554;44.954;10.068;2023-08-07T12:56:37;30.00;62.60
39881;DHT22;25554;44.954;10.068;2023-08-07T12:59:03;29.10;62.70
39881;DHT22;25554;44.954;10.068;2023-08-07T13:01:29;29.00;61.10
39881;DHT22;25554;44.954;10.068;2023-08-07T13:03:55;29.00;62.80
39881;DHT22;25554;44.954;10.068;2023-08-07T13:06:21;30.60;64.20
39881;DHT22;25554;44.954;10.068;2023-08-07T13:08:47;29.20;61.80
39881;DHT22;25554;44.954;10.068;2023-08-07T13:11:13;29.20;62.10
39881;DHT22;25554;44.954;10.068;2023-08-07T13:13:39;29.10;62.50
39881;DHT22;25554;44.954;10.068;2023-08-07T13:16:06;29.00;61.70
39881;DHT22;25554;44.954;10.068;2023-08-07T13:18:32;29.20;62.50
39881;DHT22;25554;44.954;10.068;2023-08-07T13:20:58;29.40;64.00
39881;DHT22;25554;44.954;10.068;2023-08-07T13:23:24;29.40;63.90
39881;DHT22;25554;44.954;10.068;2023-08-07T13:25:50;29.40;61.90
39881;DHT22;25554;44.954;10.068;2023-08-07T13:28:16;29.40;60.90
39881;DHT22;25554;44.954;10.068;2023-08-07T13:30:44;29.60;62.70
39881;DHT22;25554;44.954;10.068;2023-08-07T13:33:10;29.50;61.00
39881;DHT22;25554;44.954;10.068;2023-08-07T13:35:36;29.50;59.80
39881;DHT22;25554;44.954;10.068;2023-08-07T13:38:03;29.50;61.00
39881;DHT22;25554;44.954;10.068;2023-08-07T13:40:31;29.60;62.90
39881;DHT22;25554;44.954;10.068;2023-08-07T13:42:57;29.60;61.60
39881;DHT22;25554;44.954;10.068;2023-08-07T13:45:24;29.70;60.10
39881;DHT22;25554;44.954;10.068;2023-08-07T13:47:50;29.80;60.70
39881;DHT22;25554;44.954;10.068;2023-08-07T13:50:17;29.80;60.90
39881;DHT22;25554;44.954;10.068;2023-08-07T13:52:43;29.90;62.40
39881;DHT22;25554;44.954;10.068;2023-08-07T13:55:09;30.00;59.80
39881;DHT22;25554;44.954;10.068;2023-08-07T13:57:35;30.10;60.80
39881;DHT22;25554;44.954;10.068;2023-08-07T14:00:01;30.20;60.80
39881;DHT22;25554;44.954;10.068;2023-08-07T14:02:30;30.20;60.10
39881;DHT22;25554;44.954;10.068;2023-08-07T14:04:59;30.10;60.20
39881;DHT22;25554;44.954;10.068;2023-08-07T14:07:25;30.10;61.20
39881;DHT22;25554;44.954;10.068;2023-08-07T14:09:51;30.30;60.70
39881;DHT22;25554;44.954;10.068;2023-08-07T14:12:17;30.30;60.40
39881;DHT22;25554;44.954;10.068;2023-08-07T14:14:43;30.10;59.00
39881;DHT22;25554;44.954;10.068;2023-08-07T14:17:09;30.20;61.40
39881;DHT22;25554;44.954;10.068;2023-08-07T14:19:35;30.30;60.00
39881;DHT22;25554;44.954;10.068;2023-08-07T14:22:01;30.40;59.90
39881;DHT22;25554;44.954;10.068;2023-08-07T14:24:27;30.40;58.80
39881;DHT22;25554;44.954;10.068;2023-08-07T14:26:53;30.50;59.00
39881;DHT22;25554;44.954;10.068;2023-08-07T14:29:19;30.50;59.30
39881;DHT22;25554;44.954;10.068;2023-08-07T14:31:45;30.10;58.80
39881;DHT22;25554;44.954;10.068;2023-08-07T14:34:12;30.40;58.80
39881;DHT22;25554;44.954;10.068;2023-08-07T14:36:38;30.40;59.30
39881;DHT22;25554;44.954;10.068;2023-08-07T14:39:04;30.40;58.70
39881;DHT22;25554;44.954;10.068;2023-08-07T14:41:30;30.20;57.50
39881;DHT22;25554;44.954;10.068;2023-08-07T14:43:56;30.30;58.50
39881;DHT22;25554;44.954;10.068;2023-08-07T14:46:22;30.30;58.20
39881;DHT22;25554;44.954;10.068;2023-08-07T14:48:49;30.50;58.50
39881;DHT22;25554;44.954;10.068;2023-08-07T14:51:15;30.50;57.70
39881;DHT22;25554;44.954;10.068;2023-08-07T14:53:41;30.60;58.50
39881;DHT22;25554;44.954;10.068;2023-08-07T14:56:07;30.50;58.10
39881;DHT22;25554;44.954;10.068;2023-08-07T14:58:34;30.40;57.50
39881;DHT22;25554;44.954;10.068;2023-08-07T15:01:00;30.40;57.70
39881;DHT22;25554;44.954;10.068;2023-08-07T15:03:26;30.50;57.10
39881;DHT22;25554;44.954;10.068;2023-08-07T15:05:52;30.60;59.10
39881;DHT22;25554;44.954;10.068;2023-08-07T15:08:18;30.60;57.90
39881;DHT22;25554;44.954;10.068;2023-08-07T15:10:44;30.50;58.10
39881;DHT22;25554;44.954;10.068;2023-08-07T15:13:11;30.50;58.10
39881;DHT22;25554;44.954;10.068;2023-08-07T15:15:37;30.50;57.80
39881;DHT22;25554;44.954;10.068;2023-08-07T15:18:03;30.70;58.20
39881;DHT22;25554;44.954;10.068;2023-08-07T15:20:33;30.80;59.10
39881;DHT22;25554;44.954;10.068;2023-08-07T15:22:59;30.90;58.90
39881;DHT22;25554;44.954;10.068;2023-08-07T15:25:26;30.80;57.60
39881;DHT22;25554;44.954;10.068;2023-08-07T15:27:52;30.60;56.10
39881;DHT22;25554;44.954;10.068;2023-08-07T15:30:18;30.40;56.60
39881;DHT22;25554;44.954;10.068;2023-08-07T15:32:44;30.10;56.60
39881;DHT22;25554;44.954;10.068;2023-08-07T15:35:10;30.30;57.30